Time;durP1;ratioP1;P1;durP2;ratioP2;P2;SDS_P1;SDS_P2;PMS_P1;PMS_P2;Temp;Humidity;BMP_temperature;BMP_pressure;BME280_temperature;BME280_humidity;BME280_pressure;Samples;Min_cycle;Max_cycle;Signal;HPM_P1;HPM_P2
2022/06/19 00:00:10;;;;;;;0.10;0.10;;;;;;;22.97;46.97;100373.78;5130157;28;20072;-44
2022/06/19 00:02:36;;;;;;;0.10;0.10;;;;;;;22.97;46.98;100362.69;5125221;28;20075;-44
2022/06/19 00:05:02;;;;;;;0.00;0.00;;;;;;;22.97;46.91;100366.31;5111042;28;20079;-44
2022/06/19 00:07:29;;;;;;;0.10;0.10;;;;;;;22.97;47.00;100369.09;5128160;28;20062;-44
2022/06/19 00:09:55;;;;;;;0.10;0.10;;;;;;;22.96;46.91;100361.88;5129128;28;20130;-44
2022/06/19 00:12:20;;;;;;;0.10;0.10;;;;;;;22.97;46.95;100362.69;5128505;28;20045;-44
2022/06/19 00:14:46;;;;;;;0.10;0.10;;;;;;;22.96;46.98;100352.72;5096462;28;20082;-44
2022/06/19 00:17:13;;;;;;;0.10;0.10;;;;;;;22.97;47.04;100349.66;5108212;28;20035;-44
2022/06/19 00:19:40;;;;;;;0.10;0.10;;;;;;;22.96;46.95;100345.22;5109485;28;20130;-44
2022/06/19 00:22:06;;;;;;;0.10;0.10;;;;;;;22.96;46.95;100331.31;5128259;28;20462;-43
2022/06/19 00:24:32;;;;;;;0.10;0.10;;;;;;;22.96;47.06;100328.56;5128460;28;20070;-44
2022/06/19 00:26:57;;;;;;;0.10;0.10;;;;;;;22.97;47.04;100321.88;5129008;28;20062;-44
2022/06/19 00:29:23;;;;;;;0.10;0.10;;;;;;;22.97;46.90;100318.25;5127520;28;20088;-44
2022/06/19 00:31:49;;;;;;;0.10;0.10;;;;;;;22.97;46.96;100309.94;5110751;28;20054;-43
2022/06/19 00:34:15;;;;;;;0.20;0.20;;;;;;;22.96;47.03;100303.56;5128883;28;20118;-44
2022/06/19 00:36:40;;;;;;;0.10;0.10;;;;;;;22.96;47.04;100300.78;5132296;28;20039;-44
2022/06/19 00:39:06;;;;;;;0.10;0.10;;;;;;;22.96;47.17;100295.22;5128762;28;20039;-44
2022/06/19 00:41:35;;;;;;;0.10;0.10;;;;;;;22.96;47.00;100288.84;5107983;28;20059;-44
2022/06/19 00:44:04;;;;;;;0.10;0.10;;;;;;;22.98;47.00;100283.81;5090821;28;20116;-42
2022/06/19 00:47:06;;;;;;;0.10;0.10;;;;;;;22.97;46.94;100274.66;5127045;28;20078;-42
2022/06/19 00:49:35;;;;;;;0.08;0.08;;;;;;;22.97;46.99;100274.66;5113812;28;20082;-44
2022/06/19 00:52:09;;;;;;;0.10;0.10;;;;;;;22.96;46.87;100267.47;5091640;28;20059;-44
2022/06/19 00:54:42;;;;;;;0.10;0.10;;;;;;;22.97;46.82;100259.94;5128154;28;20071;-44
2022/06/19 00:57:08;;;;;;;0.10;0.10;;;;;;;22.96;47.03;100253.56;5109839;28;20079;-44
2022/06/19 00:59:36;;;;;;;0.10;0.10;;;;;;;22.98;46.87;100251.31;5123389;28;20469;-44
2022/06/19 01:02:03;;;;;;;0.10;0.10;;;;;;;22.98;47.00;100244.94;5125211;28;20126;-44
2022/06/19 01:04:34;;;;;;;0.10;0.10;;;;;;;22.97;46.89;100226.63;5129017;27;20520;-44
2022/06/19 01:07:00;;;;;;;0.00;0.00;;;;;;;22.96;46.96;100223.03;5125524;28;20150;-44
2022/06/19 01:09:25;;;;;;;0.10;0.10;;;;;;;22.97;46.94;100224.69;5127980;28;20066;-44
2022/06/19 01:11:51;;;;;;;0.00;0.00;;;;;;;22.97;47.00;100234.94;5124294;27;20054;-44
2022/06/19 01:14:20;;;;;;;0.10;0.10;;;;;;;22.97;47.00;100237.72;5129108;28;20039;-43
2022/06/19 01:16:47;;;;;;;0.00;0.00;;;;;;;22.96;46.83;100228.59;5108231;28;20130;-44
2022/06/19 01:19:20;;;;;;;0.10;0.10;;;;;;;22.97;46.96;100233.03;5108790;28;20049;-44
2022/06/19 01:21:58;;;;;;;0.10;0.10;;;;;;;22.98;47.06;100225.50;5087152;28;20082;-44
2022/06/19 01:24:44;;;;;;;;;;;;;;;22.96;46.97;100220.25;5111211;28;20228;-44
2022/06/19 01:28:45;;;;;;;0.10;0.10;;;;;;;22.96;46.97;100217.47;5113029;28;20432;-43
2022/06/19 01:29:59;;;;;;;0.10;0.10;;;;;;;22.97;46.94;100209.97;5090429;28;20165;-44
2022/06/19 01:32:24;;;;;;;0.10;0.10;;;;;;;22.96;46.95;100192.50;5124007;28;20136;-44
2022/06/19 01:34:52;;;;;;;0.10;0.10;;;;;;;22.97;47.07;100196.94;5121717;28;20367;-44
2022/06/19 01:37:21;;;;;;;;;;;;;;;22.97;47.07;100194.16;5123800;28;20510;-44
2022/06/19 01:40:07;;;;;;;0.10;0.10;;;;;;;22.96;46.98;100195.25;5127650;28;19923;-44
2022/06/19 01:42:32;;;;;;;0.10;0.10;;;;;;;22.96;46.84;100195.25;5126652;28;20078;-44
2022/06/19 01:44:58;;;;;;;0.10;0.10;;;;;;;22.96;46.94;100186.94;5128956;28;20050;-44
2022/06/19 01:47:25;;;;;;;0.10;0.10;;;;;;;22.96;46.98;100184.16;5125871;28;20048;-44
2022/06/19 01:49:52;;;;;;;0.10;0.10;;;;;;;22.97;46.96;100177.47;5123374;28;20101;-44
2022/06/19 01:52:18;;;;;;;0.10;0.10;;;;;;;22.97;47.01;100179.41;5125512;28;20071;-44
2022/06/19 01:54:49;;;;;;;0.10;0.10;;;;;;;22.98;46.95;100189.41;5127239;28;20047;-44
2022/06/19 01:57:16;;;;;;;0.10;0.10;;;;;;;22.99;46.95;100191.03;5094377;28;20074;-44
2022/06/19 01:59:44;;;;;;;0.10;0.10;;;;;;;22.98;46.90;100203.28;5126360;28;20092;-44
2022/06/19 02:02:11;;;;;;;0.10;0.10;;;;;;;22.98;46.95;100203.28;5125702;28;20133;-44
2022/06/19 02:04:37;;;;;;;0.10;0.10;;;;;;;22.98;46.99;100211.63;5125834;28;20078;-44
2022/06/19 02:07:05;;;;;;;0.10;0.10;;;;;;;22.99;47.03;100216.03;5126341;28;20047;-44
2022/06/19 02:09:33;;;;;;;0.10;0.10;;;;;;;22.97;47.03;100208.03;5107278;28;20135;-44
2022/06/19 02:11:59;;;;;;;0.00;0.00;;;;;;;22.98;46.96;100208.84;5109085;28;20151;-44
2022/06/19 02:14:24;;;;;;;0.10;0.10;;;;;;;22.98;47.16;100194.97;5126941;28;20485;-44
2022/06/19 02:16:50;;;;;;;0.10;0.10;;;;;;;22.98;47.07;100198.56;5126026;27;20050;-44
2022/06/19 02:19:17;;;;;;;0.10;0.10;;;;;;;22.98;46.96;100197.75;5124694;28;20046;-44
2022/06/19 02:21:49;;;;;;;0.10;0.10;;;;;;;22.98;46.93;100206.88;5089354;28;20083;-44
2022/06/19 02:24:19;;;;;;;0.10;0.10;;;;;;;22.98;47.03;100222.72;5093607;28;20124;-44
2022/06/19 02:26:45;;;;;;;0.10;0.10;;;;;;;22.98;46.82;100219.94;5128670;28;20138;-44
2022/06/19 02:29:13;;;;;;;0.10;0.10;;;;;;;22.98;47.05;100211.63;5108067;28;20100;-44
2022/06/19 02:31:40;;;;;;;0.10;0.10;;;;;;;22.98;46.98;100220.75;5106636;28;20193;-44
2022/06/19 02:34:21;;;;;;;0.10;0.10;;;;;;;22.99;46.96;100241.03;5125960;28;20039;-44
2022/06/19 02:36:55;;;;;;;0.10;0.10;;;;;;;22.97;46.95;100258.00;5107646;28;20121;-44
2022/06/19 02:39:34;;;;;;;0.10;0.10;;;;;;;22.98;46.95;100294.94;5104738;28;20067;-44
2022/06/19 02:45:02;;;;;;;0.10;0.10;;;;;;;22.97;47.04;100238.56;5172123;27;20121;-32
2022/06/19 02:47:32;;;;;;;0.10;0.10;;;;;;;22.97;47.12;100213.59;5126902;27;20083;-32
2022/06/19 02:49:58;;;;;;;0.10;0.10;;;;;;;22.98;47.14;100222.72;5129195;27;20146;-32
2022/06/19 02:52:24;;;;;;;0.10;0.10;;;;;;;22.98;47.18;100250.50;5125049;27;20038;-32
2022/06/19 02:54:49;;;;;;;0.10;0.10;;;;;;;22.98;47.01;100309.63;5131299;27;20051;-32
2022/06/19 02:57:16;;;;;;;0.10;0.10;;;;;;;22.98;47.12;100275.50;5146700;27;20046;-32
2022/06/19 02:59:42;;;;;;;0.10;0.10;;;;;;;22.97;47.08;100235.78;5149214;27;20572;-32
2022/06/19 03:02:09;;;;;;;0.10;0.10;;;;;;;22.98;47.07;100270.75;5132344;27;20043;-32
2022/06/19 03:04:38;;;;;;;0.10;0.10;;;;;;;22.99;46.94;100299.34;5130872;27;20045;-32
2022/06/19 03:07:04;;;;;;;0.10;0.10;;;;;;;22.98;47.04;100283.81;5127913;27;20085;-32
2022/06/19 03:09:30;;;;;;;0.10;0.10;;;;;;;22.98;47.03;100258.81;5148657;27;20104;-32
2022/06/19 03:11:55;;;;;;;0.22;0.22;;;;;;;22.98;47.05;100276.31;5146918;27;20122;-32
2022/06/19 03:14:21;;;;;;;0.10;0.10;;;;;;;22.98;47.08;100314.38;5146813;27;20139;-32
2022/06/19 03:16:47;;;;;;;0.10;0.10;;;;;;;22.99;46.88;100318.78;5147166;27;20047;-32
2022/06/19 03:19:13;;;;;;;0.10;0.10;;;;;;;22.98;47.02;100333.81;5143629;27;20045;-32
2022/06/19 03:21:39;;;;;;;0.10;0.10;;;;;;;22.98;47.13;100358.78;5146725;27;20074;-32
2022/06/19 03:24:05;;;;;;;0.10;0.10;;;;;;;22.98;47.12;100337.41;5110965;27;20396;-32
2022/06/19 03:26:30;;;;;;;0.10;0.10;;;;;;;22.97;47.13;100332.13;5131797;27;20092;-32
2022/06/19 03:28:57;;;;;;;0.38;0.20;;;;;;;22.98;47.06;100367.94;5146921;27;20051;-32
2022/06/19 03:31:24;;;;;;;0.10;0.10;;;;;;;22.99;47.06;100335.44;5145689;27;20121;-32
2022/06/19 03:33:50;;;;;;;0.10;0.10;;;;;;;22.99;47.21;100349.31;5132508;27;20054;-32
2022/06/19 03:36:16;;;;;;;0.10;0.10;;;;;;;22.98;47.03;100370.72;5128076;27;20490;-32
2022/06/19 03:38:42;;;;;;;0.10;0.10;;;;;;;22.98;47.07;100362.38;5149196;27;20046;-32
2022/06/19 03:41:08;;;;;;;0.10;0.10;;;;;;;22.99;47.22;100382.63;5145026;27;20450;-32
2022/06/19 03:43:34;;;;;;;0.10;0.10;;;;;;;22.99;47.08;100357.66;5108329;28;20051;-33
2022/06/19 03:46:01;;;;;;;0.10;0.10;;;;;;;22.98;47.07;100379.06;5126863;27;20070;-33
2022/06/19 03:48:27;;;;;;;0.17;0.17;;;;;;;22.99;47.07;100396.53;5125781;27;20135;-32
2022/06/19 03:50:52;;;;;;;0.10;0.10;;;;;;;22.98;47.07;100409.59;5125241;27;20044;-32
2022/06/19 03:53:18;;;;;;;0.10;0.10;;;;;;;22.98;47.15;100426.25;5127626;27;21622;-32
2022/06/19 03:55:44;;;;;;;0.10;0.10;;;;;;;22.98;47.04;100419.88;5119917;27;20067;-32
2022/06/19 03:58:10;;;;;;;0.10;0.10;;;;;;;22.98;46.99;100437.38;5095886;28;20083;-32
2022/06/19 04:00:36;;;;;;;0.03;0.03;;;;;;;22.98;47.18;100422.66;5111416;28;20398;-31
2022/06/19 04:03:02;;;;;;;0.10;0.10;;;;;;;22.99;47.07;100429.84;5113196;28;20072;-32
2022/06/19 04:05:27;;;;;;;0.10;0.10;;;;;;;22.97;47.13;100460.72;5114495;28;20036;-32
2022/06/19 04:07:53;;;;;;;0.10;0.10;;;;;;;22.99;47.01;100485.38;5111641;28;20073;-32
2022/06/19 04:10:20;;;;;;;0.10;0.10;;;;;;;22.99;47.23;100504.81;5111617;28;20484;-32
2022/06/19 04:12:52;;;;;;;0.10;0.10;;;;;;;22.98;47.18;100479.03;5111490;28;20056;-32
2022/06/19 04:15:18;;;;;;;0.10;0.10;;;;;;;22.99;47.18;100490.94;5113626;28;20147;-32
2022/06/19 04:17:44;;;;;;;0.10;0.10;;;;;;;22.98;47.12;100481.78;5110431;28;20557;-33
2022/06/19 04:20:10;;;;;;;0.10;0.10;;;;;;;22.99;47.10;100479.84;5093811;28;20039;-32
2022/06/19 04:22:37;;;;;;;0.10;0.10;;;;;;;22.99;47.17;100493.72;5108920;28;20067;-33
2022/06/19 04:25:04;;;;;;;0.10;0.10;;;;;;;22.99;47.20;100480.66;5109860;28;20074;-32
2022/06/19 04:27:31;;;;;;;0.10;0.10;;;;;;;22.98;47.15;100483.75;5077834;28;20080;-31
2022/06/19 04:29:57;;;;;;;0.10;0.10;;;;;;;22.98;47.23;100470.69;5110514;28;20148;-32
2022/06/19 04:32:23;;;;;;;0.10;0.10;;;;;;;22.98;47.08;100461.53;5110411;28;20279;-31
2022/06/19 04:34:48;;;;;;;0.10;0.10;;;;;;;22.98;47.14;100451.25;5115595;28;20053;-31
2022/06/19 04:37:14;;;;;;;0.10;0.10;;;;;;;22.98;47.15;100433.78;5092834;28;20122;-32
2022/06/19 04:39:40;;;;;;;0.10;0.10;;;;;;;22.99;47.18;100460.41;5109103;28;20047;-32
2022/06/19 04:42:07;;;;;;;0.10;0.10;;;;;;;22.98;47.10;100459.56;5111296;28;20441;-32
2022/06/19 04:44:33;;;;;;;0.10;0.10;;;;;;;22.99;47.14;100463.19;5110811;28;20139;-32
2022/06/19 04:47:00;;;;;;;0.10;0.10;;;;;;;22.99;47.10;100468.72;5088530;28;20512;-31
2022/06/19 04:49:25;;;;;;;0.10;0.10;;;;;;;22.99;47.21;100466.78;5075223;28;20039;-32
2022/06/19 04:51:51;;;;;;;0.10;0.10;;;;;;;22.98;47.13;100436.53;5111169;28;20047;-32
2022/06/19 04:54:16;;;;;;;0.10;0.10;;;;;;;22.98;47.04;100428.22;5108298;28;20084;-32
2022/06/19 04:56:42;;;;;;;0.10;0.10;;;;;;;22.97;47.19;100432.97;5109560;28;20046;-32
2022/06/19 04:59:09;;;;;;;0.10;0.10;;;;;;;22.99;47.04;100439.00;5109249;28;20060;-32
2022/06/19 05:01:36;;;;;;;0.10;0.10;;;;;;;22.98;47.15;100472.66;5113912;28;20493;-32
2022/06/19 05:04:05;;;;;;;0.10;0.10;;;;;;;22.99;47.12;100529.81;5107953;28;20044;-32
2022/06/19 05:06:31;;;;;;;0.10;0.10;;;;;;;22.99;47.28;100543.72;5110518;28;20085;-32
2022/06/19 05:08:57;;;;;;;0.10;0.10;;;;;;;22.99;47.22;100490.94;5092568;28;20122;-32
2022/06/19 05:11:24;;;;;;;0.10;0.10;;;;;;;22.98;47.23;100465.13;5110596;28;20426;-32
2022/06/19 05:13:49;;;;;;;0.10;0.10;;;;;;;22.99;47.23;100496.50;5106455;28;20127;-32
2022/06/19 05:16:18;;;;;;;0.10;0.10;;;;;;;22.99;47.19;100513.97;5109586;28;20115;-32
2022/06/19 05:18:44;;;;;;;0.10;0.10;;;;;;;22.99;47.26;100513.16;5109246;28;20130;-32
2022/06/19 05:21:15;;;;;;;0.10;0.10;;;;;;;22.99;47.25;100502.06;5076194;28;20048;-32
2022/06/19 05:23:44;;;;;;;0.10;0.10;;;;;;;22.98;47.21;100498.47;5106852;28;20090;-32
2022/06/19 05:26:11;;;;;;;;;;;;;;;22.98;47.19;100490.13;5108642;28;20071;-32
2022/06/19 05:28:36;;;;;;;0.10;0.10;;;;;;;22.97;47.19;100496.81;5109815;28;20023;-31
2022/06/19 05:31:03;;;;;;;0.10;0.10;;;;;;;22.98;47.15;100492.09;5108576;28;20048;-31
2022/06/19 05:33:30;;;;;;;0.10;0.10;;;;;;;22.97;47.23;100484.88;5115956;28;20047;-32
2022/06/19 05:35:56;;;;;;;0.00;0.00;;;;;;;22.98;47.23;100467.09;5109590;28;20072;-32
2022/06/19 05:38:22;;;;;;;0.10;0.10;;;;;;;22.99;47.23;100465.94;5114051;28;20079;-32
2022/06/19 05:40:50;;;;;;;0.10;0.10;;;;;;;23.00;47.27;100475.91;5109203;28;20057;-32
2022/06/19 05:43:15;;;;;;;;;;;;;;;22.98;47.24;100453.22;5107949;28;20185;-32
2022/06/19 05:45:49;;;;;;;0.10;0.10;;;;;;;22.97;47.22;100446.84;5107686;28;20378;-32
2022/06/19 05:48:16;;;;;;;0.10;0.10;;;;;;;22.97;47.29;100449.63;5109080;28;20077;-32
2022/06/19 05:50:42;;;;;;;0.10;0.10;;;;;;;22.98;47.15;100429.03;5110561;28;20043;-33
2022/06/19 05:53:07;;;;;;;0.10;0.10;;;;;;;22.97;47.16;100421.84;5109812;28;20580;-32
2022/06/19 05:55:33;;;;;;;0.10;0.10;;;;;;;22.98;47.29;100406.00;5110901;28;20035;-32
2022/06/19 05:57:59;;;;;;;0.10;0.10;;;;;;;22.98;47.13;100395.72;5110355;28;20143;-32
2022/06/19 06:00:24;;;;;;;0.10;0.10;;;;;;;22.97;47.09;100384.91;5111274;28;20043;-32
2022/06/19 06:02:50;;;;;;;0.10;0.10;;;;;;;22.97;46.98;100385.75;5111413;28;20050;-32
2022/06/19 06:05:16;;;;;;;0.10;0.10;;;;;;;22.97;47.10;100391.31;5112492;28;20039;-32
2022/06/19 06:07:41;;;;;;;0.10;0.10;;;;;;;22.97;47.12;100394.06;5110156;28;20055;-32
2022/06/19 06:10:09;;;;;;;0.10;0.10;;;;;;;22.99;47.19;100390.97;5108222;28;20444;-32
2022/06/19 06:12:35;;;;;;;0.00;0.00;;;;;;;22.97;47.28;100399.63;5109201;28;20077;-33
2022/06/19 06:15:00;;;;;;;0.10;0.10;;;;;;;22.98;47.45;100409.59;5113498;28;20051;-32
2022/06/19 06:17:26;;;;;;;0.10;0.10;;;;;;;22.98;47.28;100404.03;5110142;28;20108;-32
2022/06/19 06:19:52;;;;;;;0.10;0.10;;;;;;;22.99;47.08;100396.53;5110169;28;20140;-32
2022/06/19 06:22:17;;;;;;;0.10;0.10;;;;;;;22.98;47.20;100381.81;5106882;28;20044;-32
2022/06/19 06:24:43;;;;;;;0.10;0.10;;;;;;;22.99;47.17;100360.44;5107945;28;20050;-32
2022/06/19 06:27:09;;;;;;;0.10;0.10;;;;;;;22.97;47.00;100346.88;5108516;28;20090;-32
2022/06/19 06:29:35;;;;;;;0.10;0.10;;;;;;;22.99;47.21;100365.97;5108953;28;20047;-33
2022/06/19 06:32:01;;;;;;;0.10;0.10;;;;;;;22.99;47.18;100394.56;5109038;28;20501;-32
2022/06/19 06:34:27;;;;;;;0.10;0.10;;;;;;;22.98;47.15;100406.00;5091117;28;20051;-32
2022/06/19 06:36:52;;;;;;;0.10;0.10;;;;;;;22.99;47.19;100424.28;5107588;28;20040;-32
2022/06/19 06:39:18;;;;;;;0.10;0.10;;;;;;;22.98;47.19;100429.03;5110940;28;20044;-32
2022/06/19 06:41:43;;;;;;;0.10;0.10;;;;;;;22.99;47.17;100421.53;5108091;28;20048;-33
2022/06/19 06:44:12;;;;;;;0.10;0.10;;;;;;;22.99;47.40;100435.41;5111881;28;20412;-32
2022/06/19 06:46:38;;;;;;;0.10;0.10;;;;;;;22.99;47.20;100436.22;5111695;28;20068;-32
2022/06/19 06:49:05;;;;;;;0.10;0.10;;;;;;;22.99;47.21;100452.06;5074404;28;20051;-33
2022/06/19 06:51:31;;;;;;;0.10;0.10;;;;;;;22.98;47.14;100467.91;5109731;28;20044;-32
2022/06/19 06:53:58;;;;;;;0.10;0.10;;;;;;;23.00;47.17;100478.69;5112535;28;20461;-32
2022/06/19 06:56:24;;;;;;;0.10;0.10;;;;;;;22.99;47.12;100494.53;5115959;28;20075;-32
2022/06/19 06:58:50;;;;;;;0.10;0.10;;;;;;;22.99;47.25;100510.38;5106161;28;20142;-32
2022/06/19 07:01:19;;;;;;;0.10;0.10;;;;;;;22.99;47.10;100530.63;5110798;28;20046;-32
2022/06/19 07:03:46;;;;;;;0.10;0.10;;;;;;;23.00;47.21;100545.34;5108197;28;20075;-32
2022/06/19 07:06:12;;;;;;;0.10;0.10;;;;;;;22.99;47.31;100552.03;5094751;28;20050;-32
2022/06/19 07:08:38;;;;;;;0.10;0.10;;;;;;;22.99;47.18;100580.63;5089443;28;20364;-32
2022/06/19 07:11:04;;;;;;;0.10;0.10;;;;;;;22.99;47.18;100632.56;5109875;28;20397;-32
2022/06/19 07:13:30;;;;;;;0.10;0.10;;;;;;;23.00;47.18;100682.25;5109031;28;20142;-32
2022/06/19 07:15:55;;;;;;;0.10;0.10;;;;;;;22.99;47.28;100677.00;5091406;28;20040;-32
2022/06/19 07:18:21;;;;;;;0.10;0.10;;;;;;;22.99;47.31;100738.94;5106525;28;20051;-32
2022/06/19 07:20:47;;;;;;;0.10;0.10;;;;;;;22.99;47.39;100780.59;5109814;28;20044;-32
2022/06/19 07:23:13;;;;;;;0.10;0.10;;;;;;;22.99;47.21;100763.91;5108985;28;20077;-32
2022/06/19 07:25:38;;;;;;;0.10;0.10;;;;;;;22.99;47.26;100780.59;5109134;28;20048;-32
2022/06/19 07:28:04;;;;;;;0.10;0.10;;;;;;;22.98;47.32;100730.91;5109828;28;20139;-32
2022/06/19 07:30:30;;;;;;;0.10;0.10;;;;;;;22.98;47.35;100740.06;5110024;28;20044;-32
2022/06/19 07:32:56;;;;;;;0.10;0.10;;;;;;;22.98;47.26;100762.28;5110794;28;20138;-32
2022/06/19 07:35:22;;;;;;;0.10;0.10;;;;;;;22.99;47.22;100777.00;5094075;28;20520;-32
2022/06/19 07:37:48;;;;;;;0.10;0.10;;;;;;;22.99;47.16;100780.59;5113010;28;20066;-32
2022/06/19 07:40:16;;;;;;;0.10;0.10;;;;;;;22.99;47.21;100730.59;5110355;28;20486;-32
2022/06/19 07:42:42;;;;;;;0.10;0.10;;;;;;;22.99;47.21;100743.66;5113691;28;20121;-32
2022/06/19 07:45:08;;;;;;;0.10;0.10;;;;;;;22.98;47.22;100759.50;5112697;28;20067;-32
2022/06/19 07:50:19;;;;;;;0.10;0.10;;;;;;;22.98;47.28;100739.25;5097664;28;20138;-32
2022/06/19 07:52:47;;;;;;;0.10;0.10;;;;;;;22.99;47.23;100732.56;5111512;28;20057;-32
2022/06/19 07:55:17;;;;;;;0.10;0.10;;;;;;;22.99;47.14;100736.16;5112331;28;20086;-32
2022/06/19 07:57:43;;;;;;;0.10;0.10;;;;;;;22.98;47.18;100731.72;5079245;28;20466;-32
2022/06/19 08:00:16;;;;;;;0.10;0.10;;;;;;;22.99;47.20;100713.13;5112040;28;20097;-32
2022/06/19 08:02:47;;;;;;;0.00;0.00;;;;;;;22.98;47.27;100723.41;5108856;28;20093;-32
2022/06/19 08:05:13;;;;;;;0.10;0.10;;;;;;;22.99;47.11;100707.56;5112087;28;20135;-32
2022/06/19 08:07:40;;;;;;;0.10;0.10;;;;;;;22.98;47.25;100712.28;5110498;28;20051;-32
2022/06/19 08:10:07;;;;;;;0.10;0.10;;;;;;;22.98;47.20;100711.47;5113825;28;20074;-32
2022/06/19 08:12:32;;;;;;;0.10;0.10;;;;;;;22.99;47.16;100736.16;5115054;28;20078;-32
2022/06/19 08:14:58;;;;;;;0.10;0.10;;;;;;;22.98;47.29;100731.72;5111337;28;20054;-32
2022/06/19 08:17:24;;;;;;;0.10;0.10;;;;;;;22.97;47.21;100716.22;5109777;28;20047;-32
2022/06/19 08:19:50;;;;;;;0.10;0.10;;;;;;;22.98;47.30;100725.38;5110661;28;20478;-32
2022/06/19 08:22:16;;;;;;;0.10;0.10;;;;;;;22.99;47.20;100736.16;5111327;28;20050;-32
2022/06/19 08:24:42;;;;;;;0.10;0.10;;;;;;;22.98;47.24;100750.34;5111025;28;20411;-32
2022/06/19 08:27:07;;;;;;;0.10;0.10;;;;;;;22.99;47.21;100752.81;5112297;28;20100;-32
2022/06/19 08:29:34;;;;;;;0.10;0.10;;;;;;;22.99;47.34;100758.38;5112384;28;20058;-32
2022/06/19 08:32:00;;;;;;;0.10;0.10;;;;;;;22.99;47.23;100769.47;5109485;28;20086;-32
2022/06/19 08:34:27;;;;;;;0.10;0.10;;;;;;;22.99;47.22;100763.09;5091257;28;20042;-33
2022/06/19 08:36:53;;;;;;;0.00;0.00;;;;;;;22.99;47.22;100768.66;5094911;28;20055;-33
2022/06/19 08:39:20;;;;;;;0.10;0.10;;;;;;;22.99;47.23;100766.69;5110414;28;20094;-33
2022/06/19 08:42:06;;;;;;;0.10;0.10;;;;;;;22.98;47.38;100753.13;5109562;28;20493;-33
2022/06/19 08:44:55;;;;;;;0.10;0.10;;;;;;;22.99;47.17;100735.34;5109902;28;20039;-32
2022/06/19 08:47:32;;;;;;;0.10;0.10;;;;;;;22.99;47.07;100715.88;5088317;28;20143;-32
2022/06/19 08:50:11;;;;;;;0.10;0.10;;;;;;;22.98;47.16;100700.38;5112835;28;20067;-32
2022/06/19 08:53:00;;;;;;;0.10;0.10;;;;;;;22.99;47.29;100699.22;5113818;28;20039;-32
2022/06/19 08:55:43;;;;;;;0.10;0.10;;;;;;;22.98;47.23;100692.03;5113545;28;20445;-32
2022/06/19 08:58:34;;;;;;;0.10;0.10;;;;;;;22.98;47.34;100681.75;5112620;28;20080;-32
2022/06/19 09:01:24;;;;;;;0.10;0.10;;;;;;;22.98;47.29;100692.84;5111423;28;20067;-32
2022/06/19 09:07:11;;;;;;;0.10;0.10;;;;;;;22.98;47.22;100681.75;5108839;28;20075;-32
2022/06/19 09:12:38;;;;;;;0.10;0.10;;;;;;;22.99;47.17;100675.06;5167715;27;20206;-32
2022/06/19 09:15:25;;;;;;;0.30;0.20;;;;;;;22.98;47.29;100673.41;5145909;27;20480;-32
2022/06/19 09:18:03;;;;;;;0.10;0.10;;;;;;;22.98;47.40;100675.38;5134822;27;20093;-31
2022/06/19 09:20:40;;;;;;;0.00;0.00;;;;;;;22.99;47.29;100686.16;5137830;27;20137;-32
2022/06/19 09:23:25;;;;;;;0.10;0.10;;;;;;;22.99;47.31;100682.56;5149587;27;20063;-32
2022/06/19 09:26:13;;;;;;;0.10;0.10;;;;;;;22.98;47.18;100667.84;5145540;27;20478;-32
2022/06/19 09:28:41;;;;;;;;;;;;;;;22.99;47.30;100677.00;5134386;27;20081;-32
2022/06/19 09:31:13;;;;;;;0.10;0.10;;;;;;;22.98;47.33;100672.59;5154374;27;20010;-32
2022/06/19 09:33:47;;;;;;;0.10;0.10;;;;;;;22.98;47.27;100676.19;5137993;27;20039;-32
2022/06/19 09:36:34;;;;;;;0.10;0.10;;;;;;;22.99;47.17;100674.22;5130878;27;20126;-32
2022/06/19 09:39:23;;;;;;;0.10;0.10;;;;;;;23.00;47.34;100661.97;5145241;27;20415;-32
2022/06/19 09:41:56;;;;;;;0.10;0.10;;;;;;;22.98;47.13;100628.16;5124213;27;20043;-32
2022/06/19 09:44:52;;;;;;;0.10;0.10;;;;;;;22.98;47.39;100634.53;5146108;27;20099;-32
2022/06/19 09:47:25;;;;;;;0.30;0.20;;;;;;;22.99;47.36;100615.91;5111799;27;20123;-32
2022/06/19 09:50:04;;;;;;;0.10;0.10;;;;;;;22.99;47.37;100630.63;5147419;27;20089;-32
2022/06/19 09:52:32;;;;;;;;;;;;;;;22.99;47.28;100613.94;5147940;27;20073;-32
2022/06/19 09:55:18;;;;;;;0.10;0.10;;;;;;;22.98;47.19;100626.19;5140892;27;19955;-32
2022/06/19 09:57:47;;;;;;;0.10;0.10;;;;;;;22.98;47.28;100614.28;5126450;27;20496;-32
2022/06/19 10:00:20;;;;;;;0.10;0.10;;;;;;;22.99;47.30;100646.47;5144293;27;20488;-32
2022/06/19 10:03:27;;;;;;;0.10;0.10;;;;;;;23.00;47.33;100631.44;5109348;27;20046;-32
2022/06/19 10:05:58;;;;;;;0.10;0.10;;;;;;;22.99;47.38;100624.25;5125814;27;20046;-31
2022/06/19 10:08:31;;;;;;;0.10;0.10;;;;;;;22.99;47.28;100561.19;5106361;27;20081;-32
2022/06/19 10:11:04;;;;;;;0.10;0.10;;;;;;;22.98;47.30;100498.47;5147388;27;20526;-32
2022/06/19 10:13:35;;;;;;;0.10;0.10;;;;;;;22.97;47.20;100444.06;5126541;27;20392;-32
2022/06/19 10:16:02;;;;;;;0.10;0.10;;;;;;;22.98;47.18;100425.44;5127164;27;20127;-32
2022/06/19 10:18:32;;;;;;;0.10;0.10;;;;;;;23.00;47.09;100431.47;5127691;27;20043;-32
2022/06/19 10:21:05;;;;;;;0.10;0.10;;;;;;;22.98;47.30;100428.22;5150630;27;20043;-31
2022/06/19 10:23:58;;;;;;;0.10;0.10;;;;;;;22.99;47.43;100452.06;5129443;27;20409;-32
2022/06/19 10:26:41;;;;;;;0.10;0.10;;;;;;;22.99;47.27;100490.94;5119133;27;20067;-32
2022/06/19 10:29:32;;;;;;;0.10;0.10;;;;;;;22.99;47.35;100480.66;5120520;28;20071;-32
2022/06/19 10:32:13;;;;;;;0.10;0.10;;;;;;;22.99;47.12;100527.88;5124144;27;20673;-32
2022/06/19 10:35:03;;;;;;;0.10;0.10;;;;;;;22.99;47.34;100560.38;5138664;27;20127;-32
2022/06/19 10:37:55;;;;;;;0.10;0.10;;;;;;;22.98;47.30;100554.00;5115525;27;20059;-32
2022/06/19 10:40:47;;;;;;;0.10;0.10;;;;;;;22.99;47.16;100525.09;5101662;27;20142;-32
2022/06/19 10:43:51;;;;;;;0.10;0.10;;;;;;;22.98;47.26;100520.69;5122462;27;20133;-32
2022/06/19 10:46:17;;;;;;;0.10;0.10;;;;;;;22.99;47.42;100543.72;5118987;27;20047;-33
2022/06/19 10:49:09;;;;;;;0.00;0.00;;;;;;;23.00;47.23;100556.44;5132694;27;20055;-32
2022/06/19 10:51:58;;;;;;;0.00;0.00;;;;;;;23.00;47.28;100568.38;5111932;27;20125;-32
2022/06/19 10:54:34;;;;;;;0.10;0.10;;;;;;;23.00;47.31;100573.13;5122042;27;20074;-32
2022/06/19 10:57:26;;;;;;;0.10;0.10;;;;;;;23.00;47.34;100600.88;5113868;27;20133;-32
2022/06/19 10:59:52;;;;;;;0.10;0.10;;;;;;;22.99;47.46;100585.38;5132497;27;21659;-33
2022/06/19 11:05:21;;;;;;;0.10;0.10;;;;;;;22.99;47.28;100593.69;5109402;27;20057;-32
2022/06/19 11:07:46;;;;;;;0.10;0.10;;;;;;;22.98;47.25;100584.56;5115050;28;20066;-33
2022/06/19 11:10:19;;;;;;;0.10;0.10;;;;;;;23.00;47.25;100596.16;5137906;27;20057;-33
2022/06/19 11:12:49;;;;;;;0.10;0.10;;;;;;;23.00;47.25;100578.66;5098075;27;20047;-32
2022/06/19 11:15:27;;;;;;;0.10;0.10;;;;;;;23.00;47.26;100550.91;5134026;27;20608;-32
2022/06/19 11:18:14;;;;;;;0.10;0.10;;;;;;;23.00;47.25;100543.38;5134936;27;20150;-33
2022/06/19 11:20:43;;;;;;;0.10;0.10;;;;;;;23.00;47.23;100539.78;5103190;27;20450;-32
2022/06/19 11:23:29;;;;;;;0.10;0.10;;;;;;;23.00;47.35;100553.66;5112620;28;20096;-32
2022/06/19 11:26:16;;;;;;;0.10;0.10;;;;;;;23.00;47.35;100551.72;5097983;27;20078;-32
2022/06/19 11:28:54;;;;;;;0.00;0.00;;;;;;;23.00;47.36;100564.78;5105477;27;20126;-32
2022/06/19 11:31:26;;;;;;;0.10;0.10;;;;;;;23.00;47.22;100562.00;5113662;27;20092;-33
2022/06/19 11:34:52;;;;;;;0.10;0.10;;;;;;;22.99;47.27;100588.97;5110579;28;20043;-33
2022/06/19 11:37:10;;;;;;;0.10;0.10;;;;;;;23.00;47.57;100598.09;5102943;27;20075;-33
2022/06/19 11:39:41;;;;;;;0.10;0.10;;;;;;;23.00;47.34;100584.22;5110426;27;20134;-33
2022/06/19 11:42:47;;;;;;;0.10;0.10;;;;;;;23.00;47.30;100564.78;5117691;27;20131;-32
2022/06/19 11:45:18;;;;;;;0.10;0.10;;;;;;;23.00;47.21;100628.66;5107102;28;20473;-32
2022/06/19 11:47:57;;;;;;;0.10;0.10;;;;;;;23.00;47.25;100614.78;5130589;27;20077;-32
2022/06/19 11:50:37;;;;;;;0.10;0.10;;;;;;;23.01;47.21;100624.72;5136933;27;20045;-32
2022/06/19 11:55:48;;;;;;;0.10;0.10;;;;;;;23.00;47.40;100643.34;5164951;27;20133;-33
2022/06/19 11:58:30;;;;;;;0.10;0.10;;;;;;;23.01;47.28;100664.47;5147515;27;20038;-33